createdAt,value
2018-06-30T00:00:42.798Z,17.75
2018-06-30T00:03:12.854Z,17.74
2018-06-30T00:05:43.107Z,17.69
2018-06-30T00:08:13.299Z,17.70
2018-06-30T00:10:43.331Z,17.71
2018-06-30T00:13:13.497Z,17.66
2018-06-30T00:15:43.539Z,17.68
2018-06-30T00:18:13.613Z,17.66
2018-06-30T00:20:43.641Z,17.67
2018-06-30T00:23:13.673Z,17.66
2018-06-30T00:25:43.685Z,17.67
2018-06-30T00:28:13.801Z,17.67
2018-06-30T00:30:43.865Z,17.67
2018-06-30T00:33:13.501Z,17.62
2018-06-30T00:35:43.546Z,17.58
2018-06-30T00:38:13.641Z,17.58
2018-06-30T00:40:43.617Z,17.60
2018-06-30T00:43:13.695Z,17.58
2018-06-30T00:45:43.753Z,17.50
2018-06-30T00:48:13.901Z,17.50
2018-06-30T00:50:44.291Z,17.48
2018-06-30T00:53:14.491Z,17.46
2018-06-30T00:55:44.547Z,17.47
2018-06-30T00:58:14.604Z,17.45
2018-06-30T01:00:44.651Z,17.45
2018-06-30T01:03:14.774Z,17.44
2018-06-30T01:05:44.405Z,17.40
2018-06-30T01:08:14.459Z,17.39
2018-06-30T01:10:45.366Z,17.37
2018-06-30T01:13:15.402Z,17.40
2018-06-30T01:15:45.415Z,17.35
2018-06-30T01:18:15.446Z,17.37
2018-06-30T01:20:45.476Z,17.36
2018-06-30T01:23:15.626Z,17.37
2018-06-30T01:25:45.643Z,17.35
2018-06-30T01:28:15.683Z,17.35
2018-06-30T01:30:45.689Z,17.33
2018-06-30T01:33:15.696Z,17.31
2018-06-30T01:35:45.739Z,17.30
2018-06-30T01:38:15.790Z,17.27
2018-06-30T01:40:45.827Z,17.21
2018-06-30T01:43:15.856Z,17.20
2018-06-30T01:45:45.891Z,17.23
2018-06-30T01:48:15.892Z,17.26
2018-06-30T01:50:45.919Z,17.25
2018-06-30T01:53:15.975Z,17.26
2018-06-30T01:55:46.142Z,17.24
2018-06-30T01:58:16.173Z,17.17
2018-06-30T02:00:46.194Z,17.15
2018-06-30T02:03:16.223Z,17.16
2018-06-30T02:05:46.256Z,17.16
2018-06-30T02:08:16.524Z,17.17
2018-06-30T02:10:46.562Z,17.17
2018-06-30T02:13:16.645Z,17.16
2018-06-30T02:15:46.678Z,17.14
2018-06-30T02:18:16.734Z,17.13
2018-06-30T02:20:46.754Z,17.09
2018-06-30T02:23:16.888Z,17.05
2018-06-30T02:25:46.900Z,17.05
2018-06-30T02:28:16.930Z,17.00
2018-06-30T02:30:47.011Z,16.99
2018-06-30T02:33:17.027Z,16.98
2018-06-30T02:35:47.056Z,16.97
2018-06-30T02:38:16.640Z,16.95
2018-06-30T02:40:46.850Z,16.89
2018-06-30T02:43:16.836Z,16.87
2018-06-30T02:45:46.903Z,16.83
2018-06-30T02:48:16.921Z,16.78
2018-06-30T02:50:46.987Z,16.79
2018-06-30T02:53:17.004Z,16.75
2018-06-30T02:55:47.043Z,16.71
2018-06-30T02:58:17.096Z,16.69
2018-06-30T03:00:47.221Z,16.70
2018-06-30T03:03:17.234Z,16.72
2018-06-30T03:05:47.268Z,16.73
2018-06-30T03:08:17.382Z,16.70
2018-06-30T03:10:47.502Z,16.67
2018-06-30T03:13:17.584Z,16.61
2018-06-30T03:15:47.664Z,16.58
2018-06-30T03:18:17.749Z,16.51
2018-06-30T03:20:47.786Z,16.53
2018-06-30T03:23:17.843Z,16.55
2018-06-30T03:25:47.573Z,16.50
2018-06-30T03:28:17.606Z,16.50
2018-06-30T03:30:47.752Z,16.51
2018-06-30T03:33:17.765Z,16.48
2018-06-30T03:35:47.812Z,16.43
2018-06-30T03:38:17.841Z,16.42
2018-06-30T03:40:47.925Z,16.39
2018-06-30T03:43:17.957Z,16.36
2018-06-30T03:45:48.031Z,16.39
2018-06-30T03:48:18.040Z,16.39
2018-06-30T03:50:48.105Z,16.30
2018-06-30T03:53:18.122Z,16.24
2018-06-30T03:55:48.274Z,16.26
2018-06-30T03:58:18.287Z,16.26
2018-06-30T04:00:48.318Z,16.21
2018-06-30T04:03:18.527Z,16.20
2018-06-30T04:05:48.576Z,16.21
2018-06-30T04:08:18.635Z,16.17
2018-06-30T04:10:48.695Z,16.18
2018-06-30T04:13:18.729Z,16.19
2018-06-30T04:15:48.834Z,16.25
2018-06-30T04:18:18.856Z,16.25
2018-06-30T04:20:48.939Z,16.28
2018-06-30T04:23:18.957Z,16.29
2018-06-30T04:25:48.564Z,16.32
2018-06-30T04:28:18.594Z,16.40
2018-06-30T04:30:48.639Z,16.47
2018-06-30T04:33:18.642Z,16.56
2018-06-30T04:35:48.656Z,16.61
2018-06-30T04:38:18.709Z,16.76
2018-06-30T04:40:48.807Z,16.86
2018-06-30T04:43:18.839Z,16.98
2018-06-30T04:45:48.936Z,17.11
2018-06-30T04:48:19.022Z,17.26
2018-06-30T04:50:49.081Z,17.38
2018-06-30T04:53:19.080Z,17.58
2018-06-30T04:55:49.117Z,17.76
2018-06-30T04:58:19.366Z,17.90
2018-06-30T05:00:49.392Z,18.02
2018-06-30T05:03:18.996Z,18.15
2018-06-30T05:05:49.053Z,18.31
2018-06-30T05:08:19.221Z,18.52
2018-06-30T05:10:49.259Z,18.83
2018-06-30T05:13:18.886Z,19.06
2018-06-30T05:15:48.963Z,19.26
2018-06-30T05:18:19.011Z,19.35
2018-06-30T05:20:49.080Z,19.61
2018-06-30T05:23:19.074Z,19.80
2018-06-30T05:25:49.142Z,19.88
2018-06-30T05:28:19.202Z,20.09
2018-06-30T05:30:49.222Z,20.18
2018-06-30T05:33:18.970Z,20.24
2018-06-30T05:35:48.925Z,20.26
2018-06-30T05:38:19.006Z,20.32
2018-06-30T05:40:49.379Z,20.45
2018-06-30T05:43:19.526Z,20.67
2018-06-30T05:45:49.164Z,20.89
2018-06-30T05:48:19.225Z,21.05
2018-06-30T05:50:49.286Z,21.10
2018-06-30T05:53:19.064Z,21.22
2018-06-30T05:55:49.049Z,21.33
2018-06-30T05:58:19.108Z,21.38
2018-06-30T06:00:49.208Z,21.49
2018-06-30T06:03:19.287Z,21.61
2018-06-30T06:05:48.926Z,21.80
2018-06-30T06:08:19.223Z,21.95
2018-06-30T06:10:48.837Z,22.16
2018-06-30T06:13:18.521Z,22.12
2018-06-30T06:15:48.604Z,22.15
2018-06-30T06:18:18.678Z,22.35
2018-06-30T06:20:48.714Z,22.48
2018-06-30T06:23:18.806Z,22.58
2018-06-30T06:25:48.841Z,22.64
2018-06-30T06:28:18.547Z,22.75
2018-06-30T06:30:48.610Z,22.78
2018-06-30T06:33:18.684Z,22.98
2018-06-30T06:35:48.763Z,23.12
2018-06-30T06:38:18.833Z,23.17
2018-06-30T06:40:49.406Z,23.31
2018-06-30T06:43:20.500Z,23.13
2018-06-30T06:45:50.647Z,23.25
2018-06-30T06:48:20.761Z,23.22
2018-06-30T06:50:51.683Z,23.28
2018-06-30T06:53:22.159Z,23.30
2018-06-30T06:55:52.255Z,23.44
2018-06-30T06:58:22.362Z,23.71
2018-06-30T07:00:52.480Z,23.63
2018-06-30T07:03:22.594Z,23.58
2018-06-30T07:05:52.707Z,23.51
2018-06-30T07:08:23.064Z,23.49
2018-06-30T07:10:53.226Z,23.64
2018-06-30T07:13:23.360Z,23.70
2018-06-30T07:15:53.432Z,23.77
2018-06-30T07:18:23.552Z,23.78
2018-06-30T07:20:53.646Z,23.83
2018-06-30T07:23:23.767Z,23.87
2018-06-30T07:25:53.953Z,24.12
2018-06-30T07:28:24.059Z,24.06
2018-06-30T07:30:54.233Z,24.17
2018-06-30T07:33:24.389Z,24.21
2018-06-30T07:35:54.506Z,24.21
2018-06-30T07:38:24.631Z,24.24
2018-06-30T07:40:54.791Z,24.23
2018-06-30T07:43:25.151Z,24.48
2018-06-30T07:45:55.191Z,24.30
2018-06-30T07:48:25.331Z,24.54
2018-06-30T07:50:56.306Z,24.64
2018-06-30T07:53:26.387Z,24.80
2018-06-30T07:55:56.471Z,24.77
2018-06-30T07:58:26.595Z,24.77
2018-06-30T08:00:56.783Z,24.80
2018-06-30T08:03:26.883Z,24.84
2018-06-30T08:05:56.994Z,24.98
2018-06-30T08:08:27.118Z,25.04
2018-06-30T08:10:57.211Z,24.89
2018-06-30T08:13:27.318Z,25.10
2018-06-30T08:15:57.397Z,25.21
2018-06-30T08:18:27.552Z,25.29
2018-06-30T08:20:57.707Z,25.48
2018-06-30T08:23:27.905Z,25.66
2018-06-30T08:25:58.006Z,25.46
2018-06-30T08:28:28.150Z,25.52
2018-06-30T08:30:58.227Z,25.74
2018-06-30T08:33:28.439Z,25.65
2018-06-30T08:35:58.547Z,25.56
2018-06-30T08:38:28.667Z,25.75
2018-06-30T08:40:58.808Z,25.56
2018-06-30T08:43:28.941Z,25.73
2018-06-30T08:45:59.042Z,25.72
2018-06-30T08:48:29.152Z,25.73
2018-06-30T08:50:58.907Z,25.81
2018-06-30T08:53:28.954Z,25.86
2018-06-30T08:55:59.111Z,25.94
2018-06-30T08:58:28.755Z,26.16
2018-06-30T09:00:58.864Z,26.07
2018-06-30T09:03:29.012Z,26.10
2018-06-30T09:05:58.651Z,26.08
2018-06-30T09:08:28.862Z,26.33
2018-06-30T09:10:59.006Z,26.25
2018-06-30T09:13:29.080Z,26.21
2018-06-30T09:15:59.153Z,26.27
2018-06-30T09:18:29.174Z,26.47
2018-06-30T09:20:59.343Z,26.62
2018-06-30T09:23:29.399Z,26.77
2018-06-30T09:25:59.506Z,26.79
2018-06-30T09:28:29.603Z,26.95
2018-06-30T09:30:59.657Z,26.85
2018-06-30T09:33:29.740Z,26.91
2018-06-30T09:36:00.013Z,27.06
2018-06-30T09:38:30.098Z,27.10
2018-06-30T09:41:00.217Z,27.20
2018-06-30T09:43:30.327Z,27.13
2018-06-30T09:46:00.470Z,27.25
2018-06-30T09:48:30.564Z,27.34
2018-06-30T09:51:00.694Z,27.50
2018-06-30T09:53:30.820Z,27.52
2018-06-30T09:56:00.517Z,27.66
2018-06-30T09:58:30.527Z,27.64
2018-06-30T10:01:05.617Z,27.70
2018-06-30T10:03:36.308Z,27.81
2018-06-30T10:06:06.845Z,27.94
2018-06-30T10:08:36.563Z,27.73
2018-06-30T10:11:06.767Z,27.85
2018-06-30T10:13:36.842Z,27.95
2018-06-30T10:16:07.074Z,27.77
2018-06-30T10:18:37.140Z,27.62
2018-06-30T10:21:07.302Z,27.73
2018-06-30T10:23:37.365Z,27.72
2018-06-30T10:26:07.611Z,27.97
2018-06-30T10:28:37.702Z,28.05
2018-06-30T10:31:07.822Z,28.19
2018-06-30T10:33:37.885Z,28.12
2018-06-30T10:36:07.985Z,28.05
2018-06-30T10:38:38.053Z,28.02
2018-06-30T10:41:08.376Z,27.90
2018-06-30T10:43:38.495Z,28.05
2018-06-30T10:46:08.230Z,28.13
2018-06-30T10:48:38.332Z,28.08
2018-06-30T10:51:08.580Z,28.15
2018-06-30T10:53:39.030Z,28.33
2018-06-30T10:56:09.230Z,28.36
2018-06-30T10:58:39.363Z,28.57
2018-06-30T11:01:09.556Z,28.56
2018-06-30T11:03:39.655Z,28.59
2018-06-30T11:06:09.792Z,28.71
2018-06-30T11:08:39.930Z,28.61
2018-06-30T11:11:09.722Z,28.60
2018-06-30T11:13:39.806Z,28.36
2018-06-30T11:16:09.957Z,28.43
2018-06-30T11:18:40.088Z,28.54
2018-06-30T11:21:10.191Z,28.59
2018-06-30T11:23:40.359Z,28.74
2018-06-30T11:26:10.472Z,28.84
2018-06-30T11:28:40.688Z,28.70
2018-06-30T11:31:10.878Z,28.86
2018-06-30T11:33:41.014Z,28.93
2018-06-30T11:36:11.112Z,28.80
2018-06-30T11:38:41.250Z,28.67
2018-06-30T11:41:11.369Z,28.55
2018-06-30T11:43:41.467Z,28.59
2018-06-30T11:46:12.059Z,28.63
2018-06-30T11:48:42.211Z,28.56
2018-06-30T11:51:12.367Z,28.66
2018-06-30T11:53:42.550Z,28.62
2018-06-30T11:56:13.173Z,28.72
2018-06-30T11:58:43.267Z,28.86
2018-06-30T12:01:13.331Z,29.02
2018-06-30T12:03:43.461Z,28.97
2018-06-30T12:06:13.620Z,28.43
2018-06-30T12:08:43.779Z,28.70
2018-06-30T12:11:13.871Z,28.72
2018-06-30T12:13:44.018Z,28.92
2018-06-30T12:16:14.082Z,29.06
2018-06-30T12:18:44.245Z,29.00
2018-06-30T12:21:14.398Z,29.05
2018-06-30T12:23:44.491Z,29.24
2018-06-30T12:26:14.599Z,29.32
2018-06-30T12:28:44.658Z,29.35
2018-06-30T12:31:14.751Z,29.01
2018-06-30T12:33:45.563Z,29.13
2018-06-30T12:36:15.661Z,28.82
2018-06-30T12:38:45.773Z,28.57
2018-06-30T12:41:15.964Z,28.82
2018-06-30T12:43:46.110Z,28.60
2018-06-30T12:46:18.018Z,28.70
2018-06-30T12:48:48.125Z,28.85
2018-06-30T12:51:18.298Z,29.00
2018-06-30T12:53:48.444Z,29.10
2018-06-30T12:56:18.513Z,28.92
2018-06-30T12:58:48.658Z,29.24
2018-06-30T13:01:18.776Z,28.97
2018-06-30T13:03:49.016Z,29.02
2018-06-30T13:06:19.048Z,28.89
2018-06-30T13:08:49.214Z,29.19
2018-06-30T13:11:19.356Z,29.30
2018-06-30T13:13:49.405Z,29.23
2018-06-30T13:16:19.457Z,29.23
2018-06-30T13:18:49.618Z,29.49
2018-06-30T13:21:19.687Z,29.20
2018-06-30T13:23:49.871Z,29.21
2018-06-30T13:26:19.977Z,29.19
2018-06-30T13:28:49.762Z,29.19
2018-06-30T13:31:19.800Z,29.34
2018-06-30T13:33:49.957Z,29.50
2018-06-30T13:36:20.060Z,29.64
2018-06-30T13:38:50.195Z,29.41
2018-06-30T13:41:20.325Z,29.64
2018-06-30T13:43:50.485Z,29.73
2018-06-30T13:46:20.724Z,29.73
2018-06-30T13:48:50.843Z,29.59
2018-06-30T13:51:21.252Z,29.61
2018-06-30T13:53:51.328Z,29.66
2018-06-30T13:56:21.390Z,29.81
2018-06-30T13:58:51.501Z,29.82
2018-06-30T14:01:21.571Z,29.82
2018-06-30T14:03:51.798Z,29.95
2018-06-30T14:06:22.071Z,29.94
2018-06-30T14:08:52.203Z,29.99
2018-06-30T14:11:22.330Z,29.99
2018-06-30T14:13:52.717Z,29.96
2018-06-30T14:16:22.955Z,29.93
2018-06-30T14:18:53.061Z,29.96
2018-06-30T14:21:23.152Z,29.89
2018-06-30T14:23:53.282Z,29.98
2018-06-30T14:26:23.336Z,29.92
2018-06-30T14:28:53.189Z,29.97
2018-06-30T14:31:23.336Z,30.01
2018-06-30T14:33:53.509Z,29.61
2018-06-30T14:36:23.686Z,29.67
2018-06-30T14:38:53.816Z,29.57
2018-06-30T14:41:23.890Z,29.42
2018-06-30T14:43:54.055Z,29.59
2018-06-30T14:46:24.197Z,29.69
2018-06-30T14:48:54.262Z,29.56
2018-06-30T14:51:24.468Z,29.25
2018-06-30T14:53:54.115Z,29.26
2018-06-30T14:56:24.230Z,29.38
2018-06-30T14:58:54.560Z,29.15
2018-06-30T15:01:24.794Z,29.20
2018-06-30T15:03:54.890Z,29.27
2018-06-30T15:06:25.084Z,28.98
2018-06-30T15:08:55.191Z,28.62
2018-06-30T15:11:25.364Z,28.78
2018-06-30T15:13:55.081Z,28.52
2018-06-30T15:16:24.865Z,28.55
2018-06-30T15:18:55.500Z,28.69
2018-06-30T15:21:25.659Z,28.57
2018-06-30T15:23:55.727Z,28.60
2018-06-30T15:26:25.782Z,28.70
2018-06-30T15:28:55.487Z,28.40
2018-06-30T15:31:25.568Z,28.49
2018-06-30T15:33:55.687Z,28.57
2018-06-30T15:36:25.909Z,28.58
2018-06-30T15:38:56.010Z,28.37
2018-06-30T15:41:26.092Z,28.12
2018-06-30T15:43:56.228Z,28.07
2018-06-30T15:46:26.436Z,27.90
2018-06-30T15:48:56.620Z,28.01
2018-06-30T15:51:27.095Z,28.17
2018-06-30T15:53:57.267Z,28.15
2018-06-30T15:56:27.482Z,28.10
2018-06-30T15:58:57.941Z,28.09
2018-06-30T16:01:27.971Z,28.15
2018-06-30T16:03:58.061Z,28.14
2018-06-30T16:06:27.790Z,28.06
2018-06-30T16:08:57.868Z,27.68
2018-06-30T16:11:27.941Z,27.76
2018-06-30T16:13:58.104Z,27.68
2018-06-30T16:16:30.100Z,27.91
2018-06-30T16:19:00.160Z,27.69
2018-06-30T16:21:30.262Z,27.62
2018-06-30T16:24:00.313Z,27.60
2018-06-30T16:26:30.553Z,27.47
2018-06-30T16:29:00.618Z,27.48
2018-06-30T16:31:30.348Z,27.34
2018-06-30T16:34:00.400Z,27.16
2018-06-30T16:36:30.838Z,26.95
2018-06-30T16:39:01.023Z,26.89
2018-06-30T16:41:31.156Z,26.70
2018-06-30T16:44:01.193Z,26.83
2018-06-30T16:46:31.366Z,26.78
2018-06-30T16:49:01.547Z,26.60
2018-06-30T16:51:32.079Z,26.51
2018-06-30T16:54:02.212Z,26.57
2018-06-30T16:56:32.337Z,26.26
2018-06-30T16:59:02.448Z,26.54
2018-06-30T17:01:32.711Z,26.53
2018-06-30T17:04:02.881Z,26.54
2018-06-30T17:06:32.971Z,26.40
2018-06-30T17:09:03.149Z,26.18
2018-06-30T17:11:33.302Z,26.04
2018-06-30T17:14:03.387Z,26.03
2018-06-30T17:16:33.560Z,26.18
2018-06-30T17:19:03.634Z,26.26
2018-06-30T17:21:34.638Z,26.22
2018-06-30T17:24:05.051Z,26.07
2018-06-30T17:26:35.271Z,26.11
2018-06-30T17:29:05.416Z,25.92
2018-06-30T17:31:35.522Z,25.87
2018-06-30T17:34:05.612Z,25.58
2018-06-30T17:36:35.842Z,25.74
2018-06-30T17:39:09.651Z,25.57
2018-06-30T17:41:40.433Z,25.62
2018-06-30T17:44:10.916Z,25.63
2018-06-30T17:46:41.104Z,25.71
2018-06-30T17:49:11.278Z,25.40
2018-06-30T17:51:41.421Z,25.35
2018-06-30T17:54:11.677Z,25.39
2018-06-30T17:56:41.878Z,25.31
2018-06-30T17:59:12.096Z,25.18
2018-06-30T18:01:44.193Z,25.05
2018-06-30T18:04:14.273Z,24.99
2018-06-30T18:06:44.479Z,25.01
2018-06-30T18:09:14.544Z,24.87
2018-06-30T18:11:44.635Z,24.86
2018-06-30T18:14:15.717Z,24.88
2018-06-30T18:16:45.828Z,24.68
2018-06-30T18:19:15.909Z,24.82
2018-06-30T18:21:45.976Z,24.75
2018-06-30T18:24:16.022Z,24.53
2018-06-30T18:26:46.105Z,24.39
2018-06-30T18:29:16.153Z,24.25
2018-06-30T18:31:46.299Z,24.36
2018-06-30T18:34:16.319Z,24.26
2018-06-30T18:36:46.416Z,24.03
2018-06-30T18:39:16.518Z,24.01
2018-06-30T18:41:46.580Z,24.02
2018-06-30T18:44:16.644Z,23.93
2018-06-30T18:46:46.775Z,24.01
2018-06-30T18:49:16.824Z,24.02
2018-06-30T18:51:47.001Z,23.91
2018-06-30T18:54:17.095Z,23.87
2018-06-30T18:56:47.196Z,23.83
2018-06-30T18:59:17.326Z,23.73
2018-06-30T19:01:47.517Z,23.36
2018-06-30T19:04:17.582Z,23.38
2018-06-30T19:06:47.630Z,23.43
2018-06-30T19:09:17.696Z,23.49
2018-06-30T19:11:47.745Z,23.40
2018-06-30T19:14:17.779Z,23.44
2018-06-30T19:16:47.991Z,23.29
2018-06-30T19:19:18.026Z,23.25
2018-06-30T19:21:48.056Z,23.39
2018-06-30T19:24:18.090Z,23.04
2018-06-30T19:26:48.176Z,23.11
2018-06-30T19:29:18.270Z,23.16
2018-06-30T19:31:48.323Z,23.01
2018-06-30T19:34:18.364Z,22.95
2018-06-30T19:36:48.542Z,22.83
2018-06-30T19:39:18.575Z,22.82
2018-06-30T19:41:49.635Z,22.85
2018-06-30T19:44:19.720Z,22.62
2018-06-30T19:46:49.775Z,22.42
2018-06-30T19:49:19.840Z,22.46
2018-06-30T19:51:49.898Z,22.41
2018-06-30T19:54:19.960Z,22.13
2018-06-30T19:56:49.960Z,22.16
2018-06-30T19:59:20.149Z,22.11
2018-06-30T20:01:50.276Z,22.19
2018-06-30T20:04:20.344Z,21.92
2018-06-30T20:06:50.533Z,21.76
2018-06-30T20:09:20.641Z,21.66
2018-06-30T20:11:50.893Z,21.62
2018-06-30T20:14:20.931Z,21.68
2018-06-30T20:16:51.082Z,21.62
2018-06-30T20:19:21.143Z,21.68
2018-06-30T20:21:51.189Z,21.67
2018-06-30T20:24:21.310Z,21.74
2018-06-30T20:26:51.429Z,21.70
2018-06-30T20:29:21.726Z,21.43
2018-06-30T20:31:51.792Z,21.37
2018-06-30T20:34:21.904Z,21.42
2018-06-30T20:36:52.046Z,21.19
2018-06-30T20:39:22.158Z,21.23
2018-06-30T20:41:52.236Z,21.20
2018-06-30T20:44:22.369Z,21.31
2018-06-30T20:46:52.472Z,21.24
2018-06-30T20:49:22.611Z,21.26
2018-06-30T20:51:52.719Z,21.20
2018-06-30T20:54:22.859Z,20.97
2018-06-30T20:56:52.995Z,21.05
2018-06-30T20:59:23.219Z,21.07
2018-06-30T21:01:53.347Z,21.00
2018-06-30T21:04:23.569Z,20.98
2018-06-30T21:06:53.217Z,20.89
2018-06-30T21:09:23.390Z,20.75
2018-06-30T21:11:53.463Z,20.80
2018-06-30T21:14:23.649Z,20.68
2018-06-30T21:16:53.847Z,20.63
2018-06-30T21:19:23.921Z,20.61
2018-06-30T21:21:54.182Z,20.54
2018-06-30T21:24:24.371Z,20.61
2018-06-30T21:26:54.478Z,20.61
2018-06-30T21:29:24.587Z,20.51
2018-06-30T21:31:54.760Z,20.47
2018-06-30T21:34:25.122Z,20.40
2018-06-30T21:36:55.648Z,20.31
2018-06-30T21:39:25.720Z,20.23
2018-06-30T21:41:55.910Z,20.18
2018-06-30T21:44:26.032Z,20.25
2018-06-30T21:46:56.156Z,20.15
2018-06-30T21:49:26.216Z,19.82
2018-06-30T21:51:56.033Z,19.89
2018-06-30T21:54:26.093Z,19.83
2018-06-30T21:56:56.290Z,19.82
2018-06-30T21:59:26.387Z,19.86
2018-06-30T22:01:56.490Z,19.71
2018-06-30T22:04:26.490Z,19.62
2018-06-30T22:06:56.690Z,19.65
2018-06-30T22:09:26.807Z,19.69
2018-06-30T22:11:56.902Z,19.59
2018-06-30T22:14:27.536Z,19.50
2018-06-30T22:16:57.293Z,19.44
2018-06-30T22:19:27.395Z,19.44
2018-06-30T22:21:57.526Z,19.32
2018-06-30T22:24:27.670Z,19.17
2018-06-30T22:26:57.909Z,19.30
2018-06-30T22:29:28.011Z,19.30
2018-06-30T22:31:58.316Z,19.07
2018-06-30T22:34:28.362Z,19.14
2018-06-30T22:36:58.415Z,19.22
2018-06-30T22:40:37.262Z,19.20
2018-06-30T22:43:07.383Z,19.17
2018-06-30T22:45:37.527Z,19.01
2018-06-30T22:48:07.703Z,18.97
2018-06-30T22:50:37.804Z,18.95
2018-06-30T22:53:07.979Z,18.94
2018-06-30T22:55:38.067Z,18.90
2018-06-30T22:58:08.262Z,18.77
2018-06-30T23:00:38.390Z,18.70
2018-06-30T23:03:11.939Z,18.55
2018-06-30T23:05:42.838Z,18.50
2018-06-30T23:08:13.036Z,18.33
2018-06-30T23:10:43.138Z,18.39
2018-06-30T23:13:13.400Z,18.44
2018-06-30T23:15:43.522Z,18.33
2018-06-30T23:18:13.696Z,18.27
2018-06-30T23:20:43.915Z,18.15
2018-06-30T23:23:14.032Z,18.26
2018-06-30T23:25:44.162Z,18.26
2018-06-30T23:28:14.581Z,17.98
2018-06-30T23:30:44.707Z,18.00
2018-06-30T23:33:14.417Z,18.12
2018-06-30T23:35:44.611Z,18.05
2018-06-30T23:38:14.706Z,18.07
2018-06-30T23:40:44.761Z,18.04
2018-06-30T23:43:14.933Z,18.11
2018-06-30T23:45:45.028Z,18.01
2018-06-30T23:48:15.128Z,17.98
2018-06-30T23:50:45.213Z,17.78
2018-06-30T23:53:15.310Z,17.72
2018-06-30T23:55:45.434Z,17.63
2018-06-30T23:58:15.137Z,17.63
